sensor_id;sensor_type;location;lat;lon;timestamp;P1;durP1;ratioP1;P2;durP2;ratioP2
10005;SDS011;5042;42.626;23.382;2023-04-30T00:01:31;7.37;;;5.60;;
10005;SDS011;5042;42.626;23.382;2023-04-30T00:03:59;6.20;;;5.53;;
10005;SDS011;5042;42.626;23.382;2023-04-30T00:06:26;9.13;;;6.10;;
10005;SDS011;5042;42.626;23.382;2023-04-30T00:08:52;7.37;;;5.70;;
10005;SDS011;5042;42.626;23.382;2023-04-30T00:11:19;7.73;;;5.87;;
10005;SDS011;5042;42.626;23.382;2023-04-30T00:13:46;7.83;;;5.37;;
10005;SDS011;5042;42.626;23.382;2023-04-30T00:16:13;8.53;;;6.07;;
10005;SDS011;5042;42.626;23.382;2023-04-30T00:18:40;9.23;;;5.97;;
10005;SDS011;5042;42.626;23.382;2023-04-30T00:21:08;8.03;;;6.07;;
10005;SDS011;5042;42.626;23.382;2023-04-30T00:23:34;8.03;;;5.70;;
10005;SDS011;5042;42.626;23.382;2023-04-30T00:26:01;7.40;;;5.60;;
10005;SDS011;5042;42.626;23.382;2023-04-30T00:28:28;8.50;;;5.90;;
10005;SDS011;5042;42.626;23.382;2023-04-30T00:30:55;8.23;;;6.43;;
10005;SDS011;5042;42.626;23.382;2023-04-30T00:33:21;9.13;;;6.00;;
10005;SDS011;5042;42.626;23.382;2023-04-30T00:35:48;7.13;;;6.00;;
10005;SDS011;5042;42.626;23.382;2023-04-30T00:38:16;9.67;;;6.30;;
10005;SDS011;5042;42.626;23.382;2023-04-30T00:40:43;9.37;;;5.67;;
10005;SDS011;5042;42.626;23.382;2023-04-30T00:43:10;8.13;;;6.03;;
10005;SDS011;5042;42.626;23.382;2023-04-30T00:45:37;8.23;;;5.83;;
10005;SDS011;5042;42.626;23.382;2023-04-30T00:48:03;6.83;;;5.23;;
10005;SDS011;5042;42.626;23.382;2023-04-30T00:50:30;6.10;;;5.40;;
10005;SDS011;5042;42.626;23.382;2023-04-30T00:52:57;8.03;;;4.40;;
10005;SDS011;5042;42.626;23.382;2023-04-30T00:55:26;6.47;;;4.87;;
10005;SDS011;5042;42.626;23.382;2023-04-30T00:57:53;5.43;;;4.67;;
10005;SDS011;5042;42.626;23.382;2023-04-30T01:00:20;7.00;;;4.80;;
10005;SDS011;5042;42.626;23.382;2023-04-30T01:02:47;5.73;;;4.90;;
10005;SDS011;5042;42.626;23.382;2023-04-30T01:05:14;6.30;;;4.77;;
10005;SDS011;5042;42.626;23.382;2023-04-30T01:07:41;5.83;;;5.27;;
10005;SDS011;5042;42.626;23.382;2023-04-30T01:10:10;6.10;;;4.90;;
10005;SDS011;5042;42.626;23.382;2023-04-30T01:12:42;6.17;;;4.80;;
10005;SDS011;5042;42.626;23.382;2023-04-30T01:15:13;8.23;;;5.07;;
10005;SDS011;5042;42.626;23.382;2023-04-30T01:17:50;7.13;;;5.50;;
10005;SDS011;5042;42.626;23.382;2023-04-30T01:20:21;7.37;;;5.70;;
10005;SDS011;5042;42.626;23.382;2023-04-30T01:22:50;4.80;;;4.40;;
10005;SDS011;5042;42.626;23.382;2023-04-30T01:25:34;5.97;;;4.60;;
10005;SDS011;5042;42.626;23.382;2023-04-30T01:28:11;5.60;;;4.77;;
10005;SDS011;5042;42.626;23.382;2023-04-30T01:30:41;6.20;;;4.47;;
10005;SDS011;5042;42.626;23.382;2023-04-30T01:33:10;4.60;;;4.20;;
10005;SDS011;5042;42.626;23.382;2023-04-30T01:35:43;5.53;;;4.13;;
10005;SDS011;5042;42.626;23.382;2023-04-30T01:38:38;5.03;;;4.03;;
10005;SDS011;5042;42.626;23.382;2023-04-30T01:41:17;5.93;;;4.30;;
10005;SDS011;5042;42.626;23.382;2023-04-30T01:43:54;5.03;;;4.30;;
10005;SDS011;5042;42.626;23.382;2023-04-30T01:46:31;6.03;;;4.57;;
10005;SDS011;5042;42.626;23.382;2023-04-30T01:49:05;5.73;;;4.60;;
10005;SDS011;5042;42.626;23.382;2023-04-30T01:51:39;4.73;;;3.77;;
10005;SDS011;5042;42.626;23.382;2023-04-30T01:54:09;4.63;;;4.17;;
10005;SDS011;5042;42.626;23.382;2023-04-30T01:56:57;5.23;;;4.33;;
10005;SDS011;5042;42.626;23.382;2023-04-30T01:59:30;4.97;;;4.00;;
10005;SDS011;5042;42.626;23.382;2023-04-30T02:01:59;5.77;;;4.07;;
10005;SDS011;5042;42.626;23.382;2023-04-30T02:04:26;4.57;;;3.73;;
10005;SDS011;5042;42.626;23.382;2023-04-30T02:06:53;4.17;;;3.50;;
10005;SDS011;5042;42.626;23.382;2023-04-30T02:09:20;4.70;;;4.00;;
10005;SDS011;5042;42.626;23.382;2023-04-30T02:11:48;4.93;;;4.30;;
10005;SDS011;5042;42.626;23.382;2023-04-30T02:14:15;4.73;;;4.23;;
10005;SDS011;5042;42.626;23.382;2023-04-30T02:16:43;5.13;;;4.33;;
10005;SDS011;5042;42.626;23.382;2023-04-30T02:19:09;6.43;;;4.70;;
10005;SDS011;5042;42.626;23.382;2023-04-30T02:21:36;5.57;;;4.63;;
10005;SDS011;5042;42.626;23.382;2023-04-30T02:24:03;6.23;;;4.73;;
10005;SDS011;5042;42.626;23.382;2023-04-30T02:26:30;5.10;;;4.60;;
10005;SDS011;5042;42.626;23.382;2023-04-30T02:28:58;5.10;;;4.03;;
10005;SDS011;5042;42.626;23.382;2023-04-30T02:31:24;5.43;;;4.80;;
10005;SDS011;5042;42.626;23.382;2023-04-30T02:33:52;6.10;;;5.07;;
10005;SDS011;5042;42.626;23.382;2023-04-30T02:36:19;9.07;;;5.27;;
10005;SDS011;5042;42.626;23.382;2023-04-30T02:38:46;8.53;;;5.83;;
10005;SDS011;5042;42.626;23.382;2023-04-30T02:41:12;4.80;;;4.30;;
10005;SDS011;5042;42.626;23.382;2023-04-30T02:43:39;7.87;;;4.67;;
10005;SDS011;5042;42.626;23.382;2023-04-30T02:46:06;6.40;;;4.73;;
10005;SDS011;5042;42.626;23.382;2023-04-30T02:48:32;5.77;;;3.53;;
10005;SDS011;5042;42.626;23.382;2023-04-30T02:51:01;6.17;;;4.27;;
10005;SDS011;5042;42.626;23.382;2023-04-30T02:53:28;5.97;;;4.30;;
10005;SDS011;5042;42.626;23.382;2023-04-30T02:55:55;5.83;;;4.10;;
10005;SDS011;5042;42.626;23.382;2023-04-30T02:58:23;4.80;;;4.17;;
10005;SDS011;5042;42.626;23.382;2023-04-30T03:00:50;5.90;;;4.17;;
10005;SDS011;5042;42.626;23.382;2023-04-30T03:03:17;5.10;;;4.07;;
10005;SDS011;5042;42.626;23.382;2023-04-30T03:05:44;5.57;;;4.00;;
10005;SDS011;5042;42.626;23.382;2023-04-30T03:08:12;4.63;;;4.23;;
10005;SDS011;5042;42.626;23.382;2023-04-30T03:10:38;5.17;;;4.27;;
10005;SDS011;5042;42.626;23.382;2023-04-30T03:13:05;5.17;;;3.77;;
10005;SDS011;5042;42.626;23.382;2023-04-30T03:15:32;5.10;;;3.93;;
10005;SDS011;5042;42.626;23.382;2023-04-30T03:17:58;4.53;;;3.60;;
10005;SDS011;5042;42.626;23.382;2023-04-30T03:20:25;6.07;;;4.03;;
10005;SDS011;5042;42.626;23.382;2023-04-30T03:22:52;4.20;;;3.80;;
10005;SDS011;5042;42.626;23.382;2023-04-30T03:25:20;4.50;;;3.87;;
10005;SDS011;5042;42.626;23.382;2023-04-30T03:27:47;4.77;;;4.00;;
10005;SDS011;5042;42.626;23.382;2023-04-30T03:30:13;4.93;;;3.90;;
10005;SDS011;5042;42.626;23.382;2023-04-30T03:32:40;4.57;;;3.90;;
10005;SDS011;5042;42.626;23.382;2023-04-30T03:35:07;5.80;;;4.80;;
10005;SDS011;5042;42.626;23.382;2023-04-30T03:37:34;4.47;;;4.00;;
10005;SDS011;5042;42.626;23.382;2023-04-30T03:40:01;4.73;;;4.23;;
10005;SDS011;5042;42.626;23.382;2023-04-30T03:42:30;4.13;;;3.73;;
10005;SDS011;5042;42.626;23.382;2023-04-30T03:44:57;4.60;;;4.07;;
10005;SDS011;5042;42.626;23.382;2023-04-30T03:47:23;7.37;;;3.90;;
10005;SDS011;5042;42.626;23.382;2023-04-30T03:49:50;4.63;;;3.83;;
10005;SDS011;5042;42.626;23.382;2023-04-30T03:52:19;6.23;;;4.57;;
10005;SDS011;5042;42.626;23.382;2023-04-30T03:54:46;5.77;;;3.50;;
10005;SDS011;5042;42.626;23.382;2023-04-30T03:57:13;5.10;;;3.63;;
10005;SDS011;5042;42.626;23.382;2023-04-30T03:59:41;5.57;;;3.80;;
10005;SDS011;5042;42.626;23.382;2023-04-30T04:02:08;4.00;;;3.70;;
10005;SDS011;5042;42.626;23.382;2023-04-30T04:04:34;5.10;;;3.80;;
10005;SDS011;5042;42.626;23.382;2023-04-30T04:07:01;3.90;;;3.50;;
10005;SDS011;5042;42.626;23.382;2023-04-30T04:09:28;3.53;;;3.20;;
10005;SDS011;5042;42.626;23.382;2023-04-30T04:11:55;4.13;;;3.63;;
10005;SDS011;5042;42.626;23.382;2023-04-30T04:14:22;6.37;;;4.17;;
10005;SDS011;5042;42.626;23.382;2023-04-30T04:16:50;5.13;;;3.93;;
10005;SDS011;5042;42.626;23.382;2023-04-30T04:19:16;4.73;;;4.00;;
10005;SDS011;5042;42.626;23.382;2023-04-30T04:21:43;4.30;;;3.90;;
10005;SDS011;5042;42.626;23.382;2023-04-30T04:24:10;4.83;;;4.00;;
10005;SDS011;5042;42.626;23.382;2023-04-30T04:26:37;6.00;;;4.17;;
10005;SDS011;5042;42.626;23.382;2023-04-30T04:29:03;4.73;;;3.70;;
10005;SDS011;5042;42.626;23.382;2023-04-30T04:31:32;4.87;;;4.10;;
10005;SDS011;5042;42.626;23.382;2023-04-30T04:34:01;4.97;;;4.03;;
10005;SDS011;5042;42.626;23.382;2023-04-30T04:36:29;5.50;;;4.13;;
10005;SDS011;5042;42.626;23.382;2023-04-30T04:38:58;5.67;;;4.13;;
10005;SDS011;5042;42.626;23.382;2023-04-30T04:41:26;4.90;;;4.10;;
10005;SDS011;5042;42.626;23.382;2023-04-30T04:43:52;6.50;;;4.20;;
10005;SDS011;5042;42.626;23.382;2023-04-30T04:46:20;6.67;;;4.10;;
10005;SDS011;5042;42.626;23.382;2023-04-30T04:48:47;6.50;;;4.57;;
10005;SDS011;5042;42.626;23.382;2023-04-30T04:51:15;7.03;;;4.57;;
10005;SDS011;5042;42.626;23.382;2023-04-30T04:53:42;4.30;;;3.90;;
10005;SDS011;5042;42.626;23.382;2023-04-30T04:56:09;4.83;;;4.00;;
10005;SDS011;5042;42.626;23.382;2023-04-30T04:58:36;4.53;;;4.13;;
10005;SDS011;5042;42.626;23.382;2023-04-30T05:01:02;5.07;;;4.30;;
10005;SDS011;5042;42.626;23.382;2023-04-30T05:03:30;5.40;;;4.27;;
10005;SDS011;5042;42.626;23.382;2023-04-30T05:05:57;5.70;;;4.03;;
10005;SDS011;5042;42.626;23.382;2023-04-30T05:08:25;5.87;;;4.60;;
10005;SDS011;5042;42.626;23.382;2023-04-30T05:10:52;5.83;;;4.63;;
10005;SDS011;5042;42.626;23.382;2023-04-30T05:13:18;4.83;;;4.13;;
10005;SDS011;5042;42.626;23.382;2023-04-30T05:15:45;5.17;;;4.40;;
10005;SDS011;5042;42.626;23.382;2023-04-30T05:18:12;5.43;;;4.30;;
10005;SDS011;5042;42.626;23.382;2023-04-30T05:20:39;7.57;;;5.00;;
10005;SDS011;5042;42.626;23.382;2023-04-30T05:23:05;5.50;;;4.87;;
10005;SDS011;5042;42.626;23.382;2023-04-30T05:25:33;6.50;;;5.07;;
10005;SDS011;5042;42.626;23.382;2023-04-30T05:28:01;7.83;;;5.30;;
10005;SDS011;5042;42.626;23.382;2023-04-30T05:30:27;6.30;;;4.90;;
10005;SDS011;5042;42.626;23.382;2023-04-30T05:32:54;6.97;;;4.70;;
10005;SDS011;5042;42.626;23.382;2023-04-30T05:35:21;6.70;;;5.47;;
10005;SDS011;5042;42.626;23.382;2023-04-30T05:37:48;6.53;;;4.77;;
10005;SDS011;5042;42.626;23.382;2023-04-30T05:40:15;6.87;;;5.43;;
10005;SDS011;5042;42.626;23.382;2023-04-30T05:42:43;7.60;;;5.60;;
10005;SDS011;5042;42.626;23.382;2023-04-30T05:45:10;7.40;;;5.70;;
10005;SDS011;5042;42.626;23.382;2023-04-30T05:47:38;6.33;;;4.87;;
10005;SDS011;5042;42.626;23.382;2023-04-30T05:50:06;7.00;;;5.33;;
10005;SDS011;5042;42.626;23.382;2023-04-30T05:52:33;5.93;;;5.03;;
10005;SDS011;5042;42.626;23.382;2023-04-30T05:55:00;5.90;;;5.30;;
10005;SDS011;5042;42.626;23.382;2023-04-30T05:57:27;8.73;;;5.47;;
10005;SDS011;5042;42.626;23.382;2023-04-30T05:59:55;7.30;;;5.20;;
10005;SDS011;5042;42.626;23.382;2023-04-30T06:02:22;6.93;;;5.67;;
10005;SDS011;5042;42.626;23.382;2023-04-30T06:04:49;6.60;;;5.37;;
10005;SDS011;5042;42.626;23.382;2023-04-30T06:07:16;7.77;;;5.30;;
10005;SDS011;5042;42.626;23.382;2023-04-30T06:09:43;8.77;;;5.77;;
10005;SDS011;5042;42.626;23.382;2023-04-30T06:12:09;7.07;;;5.63;;
10005;SDS011;5042;42.626;23.382;2023-04-30T06:14:36;6.40;;;5.27;;
10005;SDS011;5042;42.626;23.382;2023-04-30T06:17:05;6.80;;;5.40;;
10005;SDS011;5042;42.626;23.382;2023-04-30T06:19:31;6.10;;;5.50;;
10005;SDS011;5042;42.626;23.382;2023-04-30T06:21:58;6.07;;;5.23;;
10005;SDS011;5042;42.626;23.382;2023-04-30T06:24:25;6.53;;;4.73;;
10005;SDS011;5042;42.626;23.382;2023-04-30T06:26:54;5.57;;;4.40;;
10005;SDS011;5042;42.626;23.382;2023-04-30T06:29:21;7.00;;;4.90;;
10005;SDS011;5042;42.626;23.382;2023-04-30T06:31:48;5.03;;;4.10;;
10005;SDS011;5042;42.626;23.382;2023-04-30T06:34:17;9.53;;;5.13;;
10005;SDS011;5042;42.626;23.382;2023-04-30T06:36:44;7.53;;;5.30;;
10005;SDS011;5042;42.626;23.382;2023-04-30T06:39:13;6.43;;;4.80;;
10005;SDS011;5042;42.626;23.382;2023-04-30T06:41:40;5.93;;;4.97;;
10005;SDS011;5042;42.626;23.382;2023-04-30T06:44:07;6.33;;;5.03;;
10005;SDS011;5042;42.626;23.382;2023-04-30T06:46:34;6.20;;;5.07;;
10005;SDS011;5042;42.626;23.382;2023-04-30T06:49:01;6.77;;;5.87;;
10005;SDS011;5042;42.626;23.382;2023-04-30T06:51:29;7.27;;;5.43;;
10005;SDS011;5042;42.626;23.382;2023-04-30T06:53:56;7.57;;;5.40;;
10005;SDS011;5042;42.626;23.382;2023-04-30T06:56:22;7.27;;;5.67;;
10005;SDS011;5042;42.626;23.382;2023-04-30T06:58:49;8.50;;;6.53;;
10005;SDS011;5042;42.626;23.382;2023-04-30T07:01:16;7.03;;;6.03;;
10005;SDS011;5042;42.626;23.382;2023-04-30T07:03:43;6.63;;;5.87;;
10005;SDS011;5042;42.626;23.382;2023-04-30T07:06:09;7.90;;;5.80;;
10005;SDS011;5042;42.626;23.382;2023-04-30T07:08:37;6.97;;;5.70;;
10005;SDS011;5042;42.626;23.382;2023-04-30T07:11:05;9.10;;;5.85;;
10005;SDS011;5042;42.626;23.382;2023-04-30T07:13:32;7.55;;;5.85;;
10005;SDS011;5042;42.626;23.382;2023-04-30T07:15:58;9.27;;;6.80;;
10005;SDS011;5042;42.626;23.382;2023-04-30T07:18:25;9.43;;;6.70;;
10005;SDS011;5042;42.626;23.382;2023-04-30T07:20:52;9.30;;;6.50;;
10005;SDS011;5042;42.626;23.382;2023-04-30T07:23:19;10.53;;;6.93;;
10005;SDS011;5042;42.626;23.382;2023-04-30T07:25:47;9.00;;;7.03;;
10005;SDS011;5042;42.626;23.382;2023-04-30T07:28:14;10.13;;;7.20;;
10005;SDS011;5042;42.626;23.382;2023-04-30T07:30:40;8.50;;;7.13;;
10005;SDS011;5042;42.626;23.382;2023-04-30T07:33:07;11.10;;;7.40;;
10005;SDS011;5042;42.626;23.382;2023-04-30T07:35:34;10.30;;;7.10;;
10005;SDS011;5042;42.626;23.382;2023-04-30T07:38:01;9.32;;;7.00;;
10005;SDS011;5042;42.626;23.382;2023-04-30T07:40:29;9.68;;;7.53;;
10005;SDS011;5042;42.626;23.382;2023-04-30T07:42:57;9.63;;;7.13;;
10005;SDS011;5042;42.626;23.382;2023-04-30T07:45:23;11.17;;;7.63;;
10005;SDS011;5042;42.626;23.382;2023-04-30T07:47:50;11.00;;;7.43;;
10005;SDS011;5042;42.626;23.382;2023-04-30T07:50:17;11.73;;;7.50;;
10005;SDS011;5042;42.626;23.382;2023-04-30T07:52:44;12.00;;;7.35;;
10005;SDS011;5042;42.626;23.382;2023-04-30T07:55:10;9.27;;;6.90;;
10005;SDS011;5042;42.626;23.382;2023-04-30T07:57:38;10.03;;;7.20;;
10005;SDS011;5042;42.626;23.382;2023-04-30T08:00:07;12.30;;;7.30;;
10005;SDS011;5042;42.626;23.382;2023-04-30T08:02:34;10.13;;;7.40;;
10005;SDS011;5042;42.626;23.382;2023-04-30T08:05:01;10.27;;;7.78;;
10005;SDS011;5042;42.626;23.382;2023-04-30T08:07:28;9.27;;;6.85;;
10005;SDS011;5042;42.626;23.382;2023-04-30T08:09:55;10.13;;;7.13;;
10005;SDS011;5042;42.626;23.382;2023-04-30T08:12:22;9.57;;;6.43;;
10005;SDS011;5042;42.626;23.382;2023-04-30T08:14:48;8.35;;;5.78;;
10005;SDS011;5042;42.626;23.382;2023-04-30T08:17:16;7.93;;;6.15;;
10005;SDS011;5042;42.626;23.382;2023-04-30T08:19:43;7.75;;;5.43;;
10005;SDS011;5042;42.626;23.382;2023-04-30T08:22:10;8.20;;;4.68;;
10005;SDS011;5042;42.626;23.382;2023-04-30T08:24:36;5.85;;;4.70;;
10005;SDS011;5042;42.626;23.382;2023-04-30T08:27:03;6.97;;;4.68;;
10005;SDS011;5042;42.626;23.382;2023-04-30T08:29:30;5.50;;;4.28;;
10005;SDS011;5042;42.626;23.382;2023-04-30T08:31:57;4.70;;;4.20;;
10005;SDS011;5042;42.626;23.382;2023-04-30T08:34:29;5.93;;;4.32;;
10005;SDS011;5042;42.626;23.382;2023-04-30T08:36:56;4.90;;;3.80;;
10005;SDS011;5042;42.626;23.382;2023-04-30T08:39:23;3.63;;;3.33;;
10005;SDS011;5042;42.626;23.382;2023-04-30T08:41:50;3.67;;;3.17;;
10005;SDS011;5042;42.626;23.382;2023-04-30T08:44:20;4.20;;;3.90;;
10005;SDS011;5042;42.626;23.382;2023-04-30T08:46:48;3.85;;;3.45;;
10005;SDS011;5042;42.626;23.382;2023-04-30T08:49:18;3.70;;;3.40;;
10005;SDS011;5042;42.626;23.382;2023-04-30T08:51:47;4.70;;;3.63;;
10005;SDS011;5042;42.626;23.382;2023-04-30T08:54:14;3.90;;;3.60;;
10005;SDS011;5042;42.626;23.382;2023-04-30T08:56:43;3.50;;;3.20;;
10005;SDS011;5042;42.626;23.382;2023-04-30T08:59:10;4.15;;;3.35;;
10005;SDS011;5042;42.626;23.382;2023-04-30T09:01:37;3.75;;;3.45;;
10005;SDS011;5042;42.626;23.382;2023-04-30T09:04:05;4.10;;;3.40;;
10005;SDS011;5042;42.626;23.382;2023-04-30T09:06:32;3.67;;;3.38;;
10005;SDS011;5042;42.626;23.382;2023-04-30T09:09:07;4.75;;;3.45;;
10005;SDS011;5042;42.626;23.382;2023-04-30T09:11:34;4.57;;;3.33;;
10005;SDS011;5042;42.626;23.382;2023-04-30T09:14:01;3.83;;;3.25;;
10005;SDS011;5042;42.626;23.382;2023-04-30T09:16:28;5.57;;;4.53;;
10005;SDS011;5042;42.626;23.382;2023-04-30T09:19:09;4.32;;;3.70;;
10005;SDS011;5042;42.626;23.382;2023-04-30T09:21:36;5.10;;;3.50;;
10005;SDS011;5042;42.626;23.382;2023-04-30T09:24:04;3.28;;;2.97;;
10005;SDS011;5042;42.626;23.382;2023-04-30T09:26:32;3.40;;;3.10;;
10005;SDS011;5042;42.626;23.382;2023-04-30T09:29:01;4.65;;;3.40;;
10005;SDS011;5042;42.626;23.382;2023-04-30T09:31:32;4.18;;;3.40;;
10005;SDS011;5042;42.626;23.382;2023-04-30T09:33:58;3.70;;;3.40;;
10005;SDS011;5042;42.626;23.382;2023-04-30T09:36:25;3.45;;;3.10;;
10005;SDS011;5042;42.626;23.382;2023-04-30T09:38:52;3.47;;;3.17;;
10005;SDS011;5042;42.626;23.382;2023-04-30T09:41:21;3.50;;;3.00;;
10005;SDS011;5042;42.626;23.382;2023-04-30T09:43:50;3.45;;;3.15;;
10005;SDS011;5042;42.626;23.382;2023-04-30T09:46:17;3.40;;;3.10;;
10005;SDS011;5042;42.626;23.382;2023-04-30T09:48:45;4.05;;;3.08;;
10005;SDS011;5042;42.626;23.382;2023-04-30T09:51:13;5.28;;;4.05;;
10005;SDS011;5042;42.626;23.382;2023-04-30T09:53:41;3.70;;;3.40;;
10005;SDS011;5042;42.626;23.382;2023-04-30T09:56:08;3.22;;;2.92;;
10005;SDS011;5042;42.626;23.382;2023-04-30T09:58:38;3.42;;;3.22;;
10005;SDS011;5042;42.626;23.382;2023-04-30T10:01:09;3.15;;;2.70;;
10005;SDS011;5042;42.626;23.382;2023-04-30T10:03:36;3.33;;;3.13;;
10005;SDS011;5042;42.626;23.382;2023-04-30T10:06:05;3.38;;;3.17;;
10005;SDS011;5042;42.626;23.382;2023-04-30T10:08:33;3.00;;;2.80;;
10005;SDS011;5042;42.626;23.382;2023-04-30T10:11:05;3.30;;;3.00;;
10005;SDS011;5042;42.626;23.382;2023-04-30T10:13:34;3.55;;;3.30;;
10005;SDS011;5042;42.626;23.382;2023-04-30T10:16:06;3.47;;;3.22;;
10005;SDS011;5042;42.626;23.382;2023-04-30T10:18:38;3.42;;;3.13;;
10005;SDS011;5042;42.626;23.382;2023-04-30T10:21:08;3.38;;;3.13;;
10005;SDS011;5042;42.626;23.382;2023-04-30T10:23:38;4.03;;;3.53;;
10005;SDS011;5042;42.626;23.382;2023-04-30T10:26:07;4.00;;;3.60;;
10005;SDS011;5042;42.626;23.382;2023-04-30T10:28:36;3.55;;;3.25;;
10005;SDS011;5042;42.626;23.382;2023-04-30T10:31:06;3.60;;;3.30;;
10005;SDS011;5042;42.626;23.382;2023-04-30T10:33:38;3.03;;;2.83;;
10005;SDS011;5042;42.626;23.382;2023-04-30T10:36:14;3.13;;;2.83;;
10005;SDS011;5042;42.626;23.382;2023-04-30T10:38:49;4.82;;;3.03;;
10005;SDS011;5042;42.626;23.382;2023-04-30T10:41:18;3.50;;;2.78;;
10005;SDS011;5042;42.626;23.382;2023-04-30T10:43:45;3.30;;;3.00;;
10005;SDS011;5042;42.626;23.382;2023-04-30T10:46:21;4.38;;;3.20;;
10005;SDS011;5042;42.626;23.382;2023-04-30T10:48:48;3.60;;;3.30;;
10005;SDS011;5042;42.626;23.382;2023-04-30T10:51:18;3.63;;;3.33;;
10005;SDS011;5042;42.626;23.382;2023-04-30T10:53:45;3.50;;;3.00;;
10005;SDS011;5042;42.626;23.382;2023-04-30T10:56:27;2.95;;;2.60;;
10005;SDS011;5042;42.626;23.382;2023-04-30T10:58:57;2.85;;;2.65;;
10005;SDS011;5042;42.626;23.382;2023-04-30T11:01:26;2.97;;;2.75;;
10005;SDS011;5042;42.626;23.382;2023-04-30T11:04:04;3.65;;;2.80;;
10005;SDS011;5042;42.626;23.382;2023-04-30T11:06:48;3.00;;;2.70;;
10005;SDS011;5042;42.626;23.382;2023-04-30T11:09:23;4.65;;;3.53;;
10005;SDS011;5042;42.626;23.382;2023-04-30T11:12:02;4.60;;;3.90;;
10005;SDS011;5042;42.626;23.382;2023-04-30T11:14:30;3.63;;;3.33;;
10005;SDS011;5042;42.626;23.382;2023-04-30T11:16:59;4.07;;;3.67;;
10005;SDS011;5042;42.626;23.382;2023-04-30T11:19:26;3.40;;;3.10;;
10005;SDS011;5042;42.626;23.382;2023-04-30T11:24:53;3.47;;;3.17;;
10005;SDS011;5042;42.626;23.382;2023-04-30T11:27:28;3.65;;;3.30;;
10005;SDS011;5042;42.626;23.382;2023-04-30T11:29:56;3.50;;;3.20;;
10005;SDS011;5042;42.626;23.382;2023-04-30T11:32:25;2.60;;;2.40;;
10005;SDS011;5042;42.626;23.382;2023-04-30T11:35:04;4.47;;;2.45;;
10005;SDS011;5042;42.626;23.382;2023-04-30T11:37:32;3.67;;;2.63;;
10005;SDS011;5042;42.626;23.382;2023-04-30T11:40:00;3.00;;;2.70;;
10005;SDS011;5042;42.626;23.382;2023-04-30T11:42:30;2.70;;;2.50;;
10005;SDS011;5042;42.626;23.382;2023-04-30T11:45:01;2.60;;;2.40;;
10005;SDS011;5042;42.626;23.382;2023-04-30T11:47:38;2.45;;;2.25;;
10005;SDS011;5042;42.626;23.382;2023-04-30T11:50:06;2.45;;;2.25;;
10005;SDS011;5042;42.626;23.382;2023-04-30T11:52:34;2.92;;;2.60;;
10005;SDS011;5042;42.626;23.382;2023-04-30T11:55:04;2.78;;;2.55;;
10005;SDS011;5042;42.626;23.382;2023-04-30T11:57:38;2.60;;;2.40;;
10005;SDS011;5042;42.626;23.382;2023-04-30T12:00:06;2.47;;;2.28;;
10005;SDS011;5042;42.626;23.382;2023-04-30T12:02:38;2.55;;;2.38;;
10005;SDS011;5042;42.626;23.382;2023-04-30T12:05:10;2.53;;;2.20;;
10005;SDS011;5042;42.626;23.382;2023-04-30T12:07:43;2.85;;;2.33;;
10005;SDS011;5042;42.626;23.382;2023-04-30T12:10:11;2.65;;;2.45;;
10005;SDS011;5042;42.626;23.382;2023-04-30T12:12:38;2.50;;;2.30;;
10005;SDS011;5042;42.626;23.382;2023-04-30T12:15:12;2.60;;;2.40;;
10005;SDS011;5042;42.626;23.382;2023-04-30T12:17:42;2.60;;;2.40;;
10005;SDS011;5042;42.626;23.382;2023-04-30T12:20:10;2.03;;;1.92;;
10005;SDS011;5042;42.626;23.382;2023-04-30T12:22:38;1.85;;;1.75;;
10005;SDS011;5042;42.626;23.382;2023-04-30T12:25:06;2.35;;;2.15;;
10005;SDS011;5042;42.626;23.382;2023-04-30T12:27:35;2.70;;;2.50;;
10005;SDS011;5042;42.626;23.382;2023-04-30T12:30:04;4.00;;;2.13;;
10005;SDS011;5042;42.626;23.382;2023-04-30T12:32:36;2.67;;;2.47;;
10005;SDS011;5042;42.626;23.382;2023-04-30T12:35:08;2.30;;;2.20;;
10005;SDS011;5042;42.626;23.382;2023-04-30T12:37:43;2.22;;;2.03;;
10005;SDS011;5042;42.626;23.382;2023-04-30T12:40:11;2.50;;;2.30;;
10005;SDS011;5042;42.626;23.382;2023-04-30T12:42:38;2.75;;;2.55;;
10005;SDS011;5042;42.626;23.382;2023-04-30T12:45:06;1.95;;;1.85;;
10005;SDS011;5042;42.626;23.382;2023-04-30T12:47:36;2.50;;;2.23;;
10005;SDS011;5042;42.626;23.382;2023-04-30T12:50:06;2.33;;;2.13;;
10005;SDS011;5042;42.626;23.382;2023-04-30T12:52:37;2.42;;;2.22;;
10005;SDS011;5042;42.626;23.382;2023-04-30T12:55:14;2.40;;;2.20;;
10005;SDS011;5042;42.626;23.382;2023-04-30T12:58:07;2.55;;;2.35;;
10005;SDS011;5042;42.626;23.382;2023-04-30T13:00:45;3.55;;;2.50;;
10005;SDS011;5042;42.626;23.382;2023-04-30T13:03:13;3.17;;;2.37;;
10005;SDS011;5042;42.626;23.382;2023-04-30T13:05:44;2.38;;;2.20;;
10005;SDS011;5042;42.626;23.382;2023-04-30T13:08:13;2.50;;;2.30;;
10005;SDS011;5042;42.626;23.382;2023-04-30T13:10:40;2.78;;;2.58;;
10005;SDS011;5042;42.626;23.382;2023-04-30T13:13:09;2.22;;;2.10;;
10005;SDS011;5042;42.626;23.382;2023-04-30T13:15:36;2.40;;;2.20;;
10005;SDS011;5042;42.626;23.382;2023-04-30T13:18:02;3.33;;;2.25;;
10005;SDS011;5042;42.626;23.382;2023-04-30T13:20:31;2.53;;;2.33;;
10005;SDS011;5042;42.626;23.382;2023-04-30T13:22:59;2.97;;;2.20;;
10005;SDS011;5042;42.626;23.382;2023-04-30T13:25:25;2.45;;;2.35;;
10005;SDS011;5042;42.626;23.382;2023-04-30T13:27:52;2.50;;;2.30;;
10005;SDS011;5042;42.626;23.382;2023-04-30T13:30:19;2.80;;;2.00;;
10005;SDS011;5042;42.626;23.382;2023-04-30T13:32:46;2.80;;;2.60;;
10005;SDS011;5042;42.626;23.382;2023-04-30T13:35:13;2.40;;;2.20;;
10005;SDS011;5042;42.626;23.382;2023-04-30T13:37:39;2.97;;;2.45;;
10005;SDS011;5042;42.626;23.382;2023-04-30T13:40:08;3.00;;;2.72;;
10005;SDS011;5042;42.626;23.382;2023-04-30T13:42:36;2.92;;;2.40;;
10005;SDS011;5042;42.626;23.382;2023-04-30T13:45:04;6.47;;;5.15;;
10005;SDS011;5042;42.626;23.382;2023-04-30T13:47:31;3.00;;;2.80;;
10005;SDS011;5042;42.626;23.382;2023-04-30T13:49:58;2.33;;;2.22;;
10005;SDS011;5042;42.626;23.382;2023-04-30T13:52:25;2.70;;;2.50;;
10005;SDS011;5042;42.626;23.382;2023-04-30T13:54:52;2.58;;;2.30;;
10005;SDS011;5042;42.626;23.382;2023-04-30T13:57:20;2.50;;;2.30;;
10005;SDS011;5042;42.626;23.382;2023-04-30T13:59:47;2.80;;;2.60;;
10005;SDS011;5042;42.626;23.382;2023-04-30T14:02:13;2.55;;;2.35;;
10005;SDS011;5042;42.626;23.382;2023-04-30T14:04:41;2.67;;;2.47;;
10005;SDS011;5042;42.626;23.382;2023-04-30T14:07:08;2.33;;;2.13;;
10005;SDS011;5042;42.626;23.382;2023-04-30T14:32:49;2.40;;;2.30;;
10005;SDS011;5042;42.626;23.382;2023-04-30T14:35:16;2.40;;;2.20;;
10005;SDS011;5042;42.626;23.382;2023-04-30T14:37:42;2.92;;;2.72;;
10005;SDS011;5042;42.626;23.382;2023-04-30T14:40:10;2.20;;;2.10;;
10005;SDS011;5042;42.626;23.382;2023-04-30T14:42:37;2.50;;;2.10;;
10005;SDS011;5042;42.626;23.382;2023-04-30T14:45:05;2.17;;;2.05;;
10005;SDS011;5042;42.626;23.382;2023-04-30T14:47:32;2.15;;;2.00;;
10005;SDS011;5042;42.626;23.382;2023-04-30T14:50:01;2.42;;;2.30;;
10005;SDS011;5042;42.626;23.382;2023-04-30T14:52:28;2.50;;;2.30;;
10005;SDS011;5042;42.626;23.382;2023-04-30T14:54:55;2.60;;;2.40;;
10005;SDS011;5042;42.626;23.382;2023-04-30T14:57:21;2.17;;;1.98;;
10005;SDS011;5042;42.626;23.382;2023-04-30T14:59:48;2.90;;;2.60;;
10005;SDS011;5042;42.626;23.382;2023-04-30T15:02:16;2.53;;;2.33;;
10005;SDS011;5042;42.626;23.382;2023-04-30T15:04:43;2.30;;;2.20;;
10005;SDS011;5042;42.626;23.382;2023-04-30T15:07:11;3.67;;;2.17;;
10005;SDS011;5042;42.626;23.382;2023-04-30T15:09:38;2.60;;;2.40;;
10005;SDS011;5042;42.626;23.382;2023-04-30T15:12:05;2.70;;;2.50;;
10005;SDS011;5042;42.626;23.382;2023-04-30T15:14:31;3.85;;;2.17;;
10005;SDS011;5042;42.626;23.382;2023-04-30T15:16:58;3.30;;;2.50;;
10005;SDS011;5042;42.626;23.382;2023-04-30T15:19:25;2.97;;;2.53;;
10005;SDS011;5042;42.626;23.382;2023-04-30T15:21:52;2.72;;;2.53;;